Terminal Aerodrome Forecast
Issued by NWS

Home | Current Version | Previous Version | Text Only | Print | Product List | Glossary On
Versions: 1 2 3 4 5 6 7 8 9 10 11 12 13
209
FTUS45 KREV 270008 AAA
TAFMMH
TAF AMD
KMMH 270008Z 2700/2724 28010G18KT P6SM SCT090 BKN120
      TEMPO 2700/2702 6SM -TSRA SCT090CB BKN110
     FM270400 30006KT P6SM SKC
     FM272000 11009KT P6SM SCT110=

USA.gov is the U.S. government's official web portal to all federal, state and local government web resources and services.